Time;durP1;ratioP1;P1;durP2;ratioP2;P2;SDS_P1;SDS_P2;PMS_P1;PMS_P2;Temp;Humidity;BMP_temperature;BMP_pressure;BME280_temperature;BME280_humidity;BME280_pressure;Samples;Min_cycle;Max_cycle;Signal;HPM_P1;HPM_P2
2022/11/04 00:01:28;;;;;;;2.55;1.33;;;;;;;13.46;100.00;99173.25;4993028;28;20033;-66
2022/11/04 00:03:54;;;;;;;2.13;1.17;;;;;;;13.40;100.00;99193.16;4992943;28;20026;-66
2022/11/04 00:06:20;;;;;;;2.47;1.23;;;;;;;13.38;100.00;99186.19;4992804;28;20062;-66
2022/11/04 00:08:50;;;;;;;2.13;1.20;;;;;;;13.34;100.00;99195.31;4992719;28;20200;-66
2022/11/04 00:14:00;;;;;;;2.10;1.40;;;;;;;13.33;100.00;99214.97;4993269;28;20037;-66
2022/11/04 00:19:09;;;;;;;2.85;1.48;;;;;;;13.30;100.00;99237.34;4994765;28;20172;-67
2022/11/04 00:29:46;;;;;;;3.80;1.48;;;;;;;13.21;100.00;99217.34;4993055;28;19921;-67
2022/11/04 00:34:56;;;;;;;3.65;1.27;;;;;;;13.13;100.00;99235.59;4992708;28;20033;-66
2022/11/04 00:37:21;;;;;;;2.92;1.77;;;;;;;13.10;100.00;99241.13;4991896;28;20478;-67
2022/11/04 00:39:47;;;;;;;3.33;1.70;;;;;;;13.07;100.00;99245.78;4992289;28;20505;-66
2022/11/04 00:42:12;;;;;;;1.42;1.08;;;;;;;12.96;100.00;99250.81;4991896;28;20485;-66
2022/11/04 00:44:38;;;;;;;2.45;1.10;;;;;;;12.88;100.00;99240.53;4992348;28;20030;-67
2022/11/04 00:47:03;;;;;;;3.42;1.40;;;;;;;12.99;100.00;99256.84;4991879;28;20041;-67
2022/11/04 00:49:28;;;;;;;3.22;1.23;;;;;;;12.97;100.00;99249.84;4992116;28;20030;-67
2022/11/04 00:51:54;;;;;;;3.03;1.23;;;;;;;12.96;100.00;99246.31;4992124;28;20105;-67
2022/11/04 00:54:19;;;;;;;2.97;1.25;;;;;;;12.88;100.00;99245.88;4992022;28;20026;-66
2022/11/04 00:56:47;;;;;;;2.38;1.45;;;;;;;12.84;100.00;99255.00;4991627;28;20109;-67
2022/11/04 00:59:13;;;;;;;3.25;1.88;;;;;;;12.75;100.00;99255.47;4992163;28;20053;-67
2022/11/04 01:01:38;;;;;;;4.80;1.90;;;;;;;12.76;100.00;99262.56;4991907;28;20031;-66
2022/11/04 01:04:04;;;;;;;1.98;1.38;;;;;;;12.79;100.00;99261.53;4991699;28;20121;-67
2022/11/04 01:06:29;;;;;;;1.58;1.02;;;;;;;12.64;100.00;99247.19;4991359;28;20460;-67
2022/11/04 01:08:59;;;;;;;2.20;1.10;;;;;;;12.73;100.00;99246.72;4991561;28;20544;-67
2022/11/04 01:11:30;;;;;;;1.23;0.80;;;;;;;12.75;100.00;99247.47;4992741;28;20032;-67
2022/11/04 01:13:56;;;;;;;1.30;0.73;;;;;;;12.69;100.00;99242.47;4994199;28;20038;-67
2022/11/04 01:16:23;;;;;;;4.38;2.55;;;;;;;12.69;100.00;99246.94;4991740;28;20104;-68
2022/11/04 01:18:49;;;;;;;20.73;19.25;;;;;;;12.66;100.00;99239.97;4991691;28;20037;-67
2022/11/04 01:21:15;;;;;;;16.80;15.50;;;;;;;12.61;100.00;99242.03;4991766;28;20022;-65
2022/11/04 01:23:42;;;;;;;9.27;8.38;;;;;;;12.62;100.00;99243.75;4991294;28;20018;-65
2022/11/04 01:26:12;;;;;;;4.55;4.13;;;;;;;12.66;100.00;99233.78;4991416;28;20041;-65
2022/11/04 01:28:37;;;;;;;9.52;8.73;;;;;;;12.64;100.00;99236.53;4991422;28;20025;-65
2022/11/04 01:31:11;;;;;;;16.58;15.18;;;;;;;12.66;100.00;99237.31;4991633;28;20026;-65
2022/11/04 01:33:37;;;;;;;;;;;;;;;12.69;100.00;99233.59;4992265;28;20112;-66
2022/11/04 01:36:03;;;;;;;19.60;17.90;;;;;;;12.62;100.00;99238.41;4991300;28;19933;-67
2022/11/04 01:38:29;;;;;;;16.17;14.88;;;;;;;12.65;100.00;99240.06;4991072;28;20551;-67
2022/11/04 01:40:55;;;;;;;6.90;6.20;;;;;;;12.58;100.00;99226.19;4991245;28;20034;-67
2022/11/04 01:43:21;;;;;;;5.32;3.72;;;;;;;12.58;100.00;99247.53;4990119;28;20397;-66
2022/11/04 01:46:00;;;;;;;4.85;3.65;;;;;;;12.52;100.00;99253.16;4990153;28;20100;-67
2022/11/04 01:48:32;;;;;;;2.95;1.48;;;;;;;12.51;100.00;99239.91;4989872;28;20426;-67
2022/11/04 01:50:59;;;;;;;5.17;3.77;;;;;;;12.54;100.00;99245.06;4990161;28;20549;-69
2022/11/04 01:53:32;;;;;;;2.70;1.55;;;;;;;12.53;100.00;99249.56;4990015;28;20273;-66
2022/11/04 01:56:01;;;;;;;1.77;1.02;;;;;;;12.52;100.00;99245.16;5005459;28;20089;-66
2022/11/04 01:58:33;;;;;;;3.00;1.67;;;;;;;12.42;100.00;99243.91;4991188;28;20022;-66
2022/11/04 02:00:59;;;;;;;5.18;2.30;;;;;;;12.33;100.00;99247.09;4991044;28;20033;-67
2022/11/04 02:03:37;;;;;;;3.33;1.90;;;;;;;12.36;100.00;99246.91;4990171;28;20030;-67
2022/11/04 02:06:04;;;;;;;2.35;1.58;;;;;;;12.34;100.00;99248.78;4991060;28;20053;-66
2022/11/04 02:08:30;;;;;;;2.60;1.10;;;;;;;12.23;100.00;99245.81;4991319;28;20114;-67
2022/11/04 02:11:02;;;;;;;1.15;0.73;;;;;;;12.20;100.00;99242.44;4990697;28;20105;-67
2022/11/04 02:13:30;;;;;;;3.78;1.83;;;;;;;12.18;100.00;99239.00;4990831;28;20100;-67
2022/11/04 02:16:08;;;;;;;4.97;2.97;;;;;;;12.16;100.00;99233.75;4994279;28;20061;-68
2022/11/04 02:18:33;;;;;;;2.85;1.77;;;;;;;12.16;100.00;99239.06;4995124;28;20052;-67
2022/11/04 02:21:24;;;;;;;2.38;1.33;;;;;;;12.11;100.00;99234.94;4995221;28;20062;-67
2022/11/04 02:23:57;;;;;;;3.35;2.40;;;;;;;12.19;100.00;99227.41;4994855;28;20018;-67
2022/11/04 02:26:39;;;;;;;1.02;0.90;;;;;;;12.21;100.00;99226.38;4994867;28;20030;-67
2022/11/04 02:29:34;;;;;;;1.58;0.80;;;;;;;12.18;100.00;99234.53;4994716;28;20034;-67
2022/11/04 02:32:05;;;;;;;3.47;1.00;;;;;;;12.17;100.00;99234.63;4995575;28;20030;-69
2022/11/04 02:34:55;;;;;;;3.05;0.98;;;;;;;12.11;100.00;99230.44;4994125;28;20026;-68
2022/11/04 02:37:36;;;;;;;2.13;1.00;;;;;;;12.02;100.00;99241.59;4994831;28;20437;-69
2022/11/04 02:40:20;;;;;;;2.35;0.88;;;;;;;11.99;100.00;99231.09;5011883;28;20460;-68
2022/11/04 02:42:55;;;;;;;2.47;1.10;;;;;;;11.95;100.00;99234.84;4998231;28;20081;-69
2022/11/04 02:45:25;;;;;;;2.80;1.13;;;;;;;11.96;100.00;99236.56;4994379;28;20050;-69
2022/11/04 02:48:01;;;;;;;1.27;0.80;;;;;;;11.84;100.00;99237.19;4994449;28;20058;-68
2022/11/04 02:50:38;;;;;;;3.40;0.98;;;;;;;11.88;100.00;99234.28;4993791;28;20026;-69
2022/11/04 02:53:17;;;;;;;1.52;1.08;;;;;;;11.82;100.00;99236.41;4994526;28;20033;-69
2022/11/04 02:55:50;;;;;;;2.08;1.20;;;;;;;11.73;100.00;99245.72;4994410;28;20141;-69
2022/11/04 02:58:21;;;;;;;2.65;1.20;;;;;;;11.74;100.00;99246.59;4994434;28;20108;-69
2022/11/04 03:00:49;;;;;;;2.83;1.38;;;;;;;11.76;100.00;99244.72;4994045;28;20058;-68
2022/11/04 03:03:22;;;;;;;3.45;1.60;;;;;;;11.79;100.00;99237.41;4993878;28;20033;-70
2022/11/04 03:05:51;;;;;;;3.15;1.10;;;;;;;11.80;100.00;99241.81;5007749;28;20088;-69
2022/11/04 03:08:43;;;;;;;5.68;1.50;;;;;;;11.82;100.00;99236.41;5013439;28;20050;-69
2022/11/04 03:11:17;;;;;;;3.78;1.23;;;;;;;11.76;100.00;99234.06;5013529;28;20552;-69
2022/11/04 03:13:54;;;;;;;3.15;1.60;;;;;;;11.77;100.00;99236.63;5013591;28;20030;-69
2022/11/04 03:16:27;;;;;;;5.28;1.70;;;;;;;11.75;100.00;99237.63;5013508;28;20551;-68
2022/11/04 03:19:11;;;;;;;4.30;1.48;;;;;;;11.67;100.00;99230.03;4997666;28;20031;-69
2022/11/04 03:21:44;;;;;;;2.45;1.33;;;;;;;11.67;100.00;99224.72;4993539;28;20104;-68
2022/11/04 03:24:10;;;;;;;4.22;1.60;;;;;;;11.63;100.00;99223.13;4993864;28;20042;-67
2022/11/04 03:27:03;;;;;;;7.85;1.40;;;;;;;11.61;100.00;99229.44;4993849;28;20046;-67
2022/11/04 03:29:49;;;;;;;7.18;1.95;;;;;;;11.56;100.00;99243.00;4993132;28;20194;-69
2022/11/04 03:32:27;;;;;;;6.72;3.75;;;;;;;11.57;100.00;99223.41;4993914;28;20517;-68
2022/11/04 03:34:53;;;;;;;2.63;1.58;;;;;;;11.54;100.00;99217.34;4993419;28;20030;-68
2022/11/04 03:37:18;;;;;;;2.67;1.20;;;;;;;11.54;100.00;99212.91;4993684;28;20085;-68
2022/11/04 03:39:43;;;;;;;2.70;1.00;;;;;;;11.52;100.00;99213.91;4993461;28;20022;-68
2022/11/04 03:42:20;;;;;;;2.72;1.20;;;;;;;11.47;100.00;99215.94;4993615;28;20532;-68
2022/11/04 03:44:49;;;;;;;3.45;1.13;;;;;;;11.38;100.00;99216.38;4993473;28;20030;-69
2022/11/04 03:47:15;;;;;;;2.47;1.17;;;;;;;11.41;100.00;99235.75;4993400;28;20023;-69
2022/11/04 03:49:42;;;;;;;3.03;1.45;;;;;;;11.39;100.00;99221.63;4993321;28;20034;-67
2022/11/04 03:52:08;;;;;;;3.28;1.27;;;;;;;11.39;100.00;99213.66;4993488;28;20097;-69
2022/11/04 03:54:35;;;;;;;1.35;0.80;;;;;;;11.37;100.00;99206.66;4993080;28;20042;-68
2022/11/04 03:57:03;;;;;;;1.52;0.80;;;;;;;11.36;100.00;99208.47;4992995;28;20105;-68
2022/11/04 03:59:47;;;;;;;1.77;1.13;;;;;;;11.32;100.00;99219.31;4993250;28;20109;-68
2022/11/04 04:02:18;;;;;;;2.50;1.10;;;;;;;11.33;100.00;99218.41;4993308;28;20374;-68
2022/11/04 04:04:56;;;;;;;3.33;1.02;;;;;;;11.25;100.00;99188.63;4992907;28;20030;-69
2022/11/04 04:07:49;;;;;;;8.35;1.35;;;;;;;11.34;100.00;99193.50;4995007;28;20078;-68
2022/11/04 04:10:38;;;;;;;0.80;0.80;;;;;;;11.33;100.00;99197.13;4992957;28;20037;-68
2022/11/04 04:13:25;;;;;;;3.08;1.27;;;;;;;11.34;100.00;99198.81;4993085;28;20096;-69
2022/11/04 04:16:06;;;;;;;4.80;1.30;;;;;;;11.29;100.00;99182.22;4991155;28;20121;-69
2022/11/04 04:18:57;;;;;;;1.45;1.00;;;;;;;11.33;100.00;99197.13;4992970;28;20571;-68
2022/11/04 04:21:29;;;;;;;7.07;1.63;;;;;;;11.35;100.00;99213.88;4992560;28;20120;-68
2022/11/04 04:29:30;;;;;;;2.72;1.30;;;;;;;11.35;100.00;99206.72;4991954;28;20026;-69
2022/11/04 04:31:59;;;;;;;4.45;1.30;;;;;;;11.25;100.00;99193.97;4992622;28;20030;-69
2022/11/04 04:34:27;;;;;;;12.57;1.75;;;;;;;11.35;100.00;99221.88;4992154;28;20030;-68
2022/11/04 04:37:03;;;;;;;2.95;1.52;;;;;;;11.36;100.00;99212.94;5007812;28;20030;-68
2022/11/04 04:45:06;;;;;;;10.77;2.55;;;;;;;11.34;100.00;99197.03;4990909;28;20270;-68
2022/11/04 04:47:45;;;;;;;7.82;1.65;;;;;;;11.40;100.00;99206.53;4990884;28;20493;-68
2022/11/04 04:50:16;;;;;;;10.38;1.70;;;;;;;11.41;100.00;99205.59;4990666;28;20053;-68
2022/11/04 04:52:48;;;;;;;5.50;1.35;;;;;;;11.39;100.00;99202.13;4990885;28;20034;-68
2022/11/04 04:55:13;;;;;;;8.90;1.50;;;;;;;11.40;100.00;99199.38;4991059;28;20032;-68
2022/11/04 04:57:39;;;;;;;1.65;1.10;;;;;;;11.35;100.00;99200.56;5007654;28;20062;-68
2022/11/04 05:00:06;;;;;;;5.63;1.20;;;;;;;11.34;100.00;99190.84;4989756;28;20026;-68
2022/11/04 05:02:32;;;;;;;6.95;1.45;;;;;;;11.38;100.00;99190.59;4991008;28;20493;-67
2022/11/04 05:04:58;;;;;;;1.92;1.20;;;;;;;11.41;100.00;99192.28;5007330;28;20105;-68
2022/11/04 05:07:24;;;;;;;3.47;1.77;;;;;;;11.36;100.00;99180.97;5010000;28;20446;-68
2022/11/04 05:09:50;;;;;;;3.15;1.40;;;;;;;11.43;100.00;99185.91;5009642;28;20029;-68
2022/11/04 05:12:15;;;;;;;5.70;1.70;;;;;;;11.43;100.00;99185.91;4999686;28;20149;-68
2022/11/04 05:14:40;;;;;;;4.15;1.92;;;;;;;11.37;100.00;99166.72;4991536;28;20022;-68
2022/11/04 05:17:06;;;;;;;4.95;1.98;;;;;;;11.36;100.00;99170.34;4991500;28;20937;-68
2022/11/04 05:19:31;;;;;;;9.73;2.65;;;;;;;11.25;100.00;99151.38;4991091;28;20019;-68
2022/11/04 05:21:57;;;;;;;7.05;4.00;;;;;;;11.29;100.00;99150.25;4991548;28;20034;-69
2022/11/04 05:24:22;;;;;;;27.90;6.47;;;;;;;11.26;100.00;99148.63;4989829;28;20026;-68
2022/11/04 05:26:48;;;;;;;14.63;3.25;;;;;;;11.24;100.00;99141.63;4991296;28;20398;-69
2022/11/04 05:29:13;;;;;;;8.23;2.92;;;;;;;11.20;100.00;99132.09;4991323;28;20470;-68
2022/11/04 05:31:39;;;;;;;6.57;2.50;;;;;;;11.16;100.00;99126.06;4991564;28;20113;-69
2022/11/04 05:34:05;;;;;;;7.85;2.95;;;;;;;11.09;100.00;99121.09;4991550;28;20061;-69
2022/11/04 05:36:32;;;;;;;24.35;3.47;;;;;;;11.13;100.00;99126.22;4991447;28;20030;-68
2022/11/04 05:38:57;;;;;;;10.40;2.83;;;;;;;11.13;100.00;99130.66;4991148;28;20026;-68
2022/11/04 05:41:26;;;;;;;14.02;2.67;;;;;;;11.02;100.00;99123.19;4991141;28;20482;-69
2022/11/04 05:43:57;;;;;;;7.75;2.33;;;;;;;11.09;100.00;99139.72;4991648;28;20026;-69
2022/11/04 05:46:23;;;;;;;6.70;3.00;;;;;;;11.03;100.00;99134.72;4989986;28;20026;-69
2022/11/04 05:48:49;;;;;;;8.98;3.88;;;;;;;11.05;100.00;99144.34;4983707;28;20038;-68
2022/11/04 05:51:18;;;;;;;13.57;4.57;;;;;;;11.04;100.00;99139.09;4987790;28;20022;-68
2022/11/04 05:53:43;;;;;;;11.57;3.90;;;;;;;11.03;100.00;99134.72;4988034;28;20042;-69
2022/11/04 05:56:09;;;;;;;13.30;3.25;;;;;;;11.02;100.00;99130.34;4987851;28;20030;-68
2022/11/04 05:58:34;;;;;;;7.13;2.83;;;;;;;11.00;100.00;99134.88;4986343;28;20026;-69
2022/11/04 06:01:23;;;;;;;5.40;2.30;;;;;;;10.95;100.00;99136.88;4986748;28;20473;-68
2022/11/04 06:03:48;;;;;;;9.50;3.25;;;;;;;10.97;100.00;99138.50;4985702;28;20096;-69
2022/11/04 06:06:14;;;;;;;6.38;2.60;;;;;;;11.00;100.00;99145.50;4986369;28;20501;-68
2022/11/04 06:08:39;;;;;;;6.35;2.25;;;;;;;11.04;100.00;99152.38;4990453;28;20401;-69
2022/11/04 06:11:05;;;;;;;6.40;2.40;;;;;;;11.05;100.00;99148.81;4995913;28;20493;-69
2022/11/04 06:13:30;;;;;;;5.43;1.70;;;;;;;11.03;100.00;99145.34;4988764;28;20038;-68
2022/11/04 06:15:56;;;;;;;3.83;1.85;;;;;;;11.04;100.00;99147.94;4988381;28;20049;-67
2022/11/04 06:18:21;;;;;;;5.28;2.22;;;;;;;11.00;100.00;99129.53;4989051;28;20482;-68
2022/11/04 06:20:47;;;;;;;3.35;1.42;;;;;;;11.02;100.00;99146.31;4988585;28;20118;-69
2022/11/04 06:23:12;;;;;;;5.18;2.00;;;;;;;11.02;100.00;99146.31;4988152;28;20528;-69
2022/11/04 06:25:37;;;;;;;4.00;2.10;;;;;;;11.03;100.00;99150.66;4988276;28;20112;-68
2022/11/04 06:28:03;;;;;;;8.35;3.33;;;;;;;11.05;100.00;99148.81;4991688;28;20084;-68
2022/11/04 06:30:28;;;;;;;6.57;3.40;;;;;;;11.00;100.00;99135.75;4985539;28;20062;-68
2022/11/04 06:32:54;;;;;;;5.95;3.40;;;;;;;11.02;100.00;99138.31;4984684;28;20034;-69
2022/11/04 06:35:19;;;;;;;7.82;2.90;;;;;;;10.94;100.00;99121.88;4985994;28;20027;-68
2022/11/04 06:37:45;;;;;;;5.15;2.90;;;;;;;11.02;100.00;99135.66;4987166;28;20022;-68
2022/11/04 06:40:10;;;;;;;4.43;2.40;;;;;;;11.01;100.00;99145.44;4986839;28;20026;-69
2022/11/04 06:42:36;;;;;;;5.68;2.58;;;;;;;11.03;100.00;99142.69;4986875;28;20045;-68
2022/11/04 06:45:01;;;;;;;4.85;2.25;;;;;;;11.03;100.00;99146.22;4986087;28;20022;-68
2022/11/04 06:47:27;;;;;;;7.57;2.70;;;;;;;11.03;100.00;99154.22;4987639;28;20026;-68
2022/11/04 06:49:55;;;;;;;11.95;5.32;;;;;;;10.98;100.00;99150.03;4988949;28;20022;-68
2022/11/04 06:52:21;;;;;;;11.18;5.65;;;;;;;11.08;100.00;99170.81;4989240;28;20113;-69
2022/11/04 06:54:46;;;;;;;11.55;5.75;;;;;;;11.09;100.00;99169.88;4989049;28;20152;-68
2022/11/04 06:57:12;;;;;;;7.00;4.45;;;;;;;11.14;100.00;99170.50;4988100;28;20064;-69
2022/11/04 06:59:38;;;;;;;6.53;4.18;;;;;;;11.13;100.00;99167.94;4988804;28;20520;-68
2022/11/04 07:02:04;;;;;;;4.88;2.97;;;;;;;11.19;100.00;99170.28;4988181;28;20042;-68
2022/11/04 07:04:29;;;;;;;5.85;3.10;;;;;;;11.21;100.00;99171.06;4991871;28;20088;-68
2022/11/04 07:06:55;;;;;;;5.75;3.10;;;;;;;11.24;100.00;99177.13;4990398;28;20101;-69
2022/11/04 07:09:20;;;;;;;11.75;2.88;;;;;;;11.24;100.00;99173.59;4991252;28;20498;-68
2022/11/04 07:11:46;;;;;;;7.97;2.45;;;;;;;11.29;100.00;99180.41;4990685;28;20040;-69
2022/11/04 07:14:12;;;;;;;7.10;2.58;;;;;;;11.38;100.00;99187.94;4985885;28;20050;-68
2022/11/04 07:16:38;;;;;;;10.27;4.80;;;;;;;11.36;100.00;99175.66;4989934;28;20045;-69
2022/11/04 07:19:04;;;;;;;6.72;2.53;;;;;;;11.46;100.00;99180.47;4991905;28;20472;-68
2022/11/04 07:21:29;;;;;;;15.45;3.45;;;;;;;11.52;100.00;99185.47;4992335;28;20030;-68
2022/11/04 07:23:55;;;;;;;8.02;3.55;;;;;;;11.58;100.00;99165.69;4991406;28;20029;-67
2022/11/04 07:26:20;;;;;;;8.77;2.92;;;;;;;11.58;100.00;99152.38;4986217;28;20470;-68
2022/11/04 07:28:46;;;;;;;4.22;2.45;;;;;;;11.73;100.00;99164.91;4992693;28;20035;-68
2022/11/04 07:31:13;;;;;;;10.75;4.95;;;;;;;11.81;100.00;99168.06;4990693;28;20475;-69
2022/11/04 07:33:38;;;;;;;10.32;3.72;;;;;;;11.86;100.00;99171.38;4993247;28;20041;-68
2022/11/04 07:36:07;;;;;;;9.50;3.60;;;;;;;11.89;100.00;99181.88;4977891;28;20027;-68
2022/11/04 07:38:32;;;;;;;11.38;5.53;;;;;;;11.99;100.00;99188.44;4974226;28;20098;-69
2022/11/04 07:40:59;;;;;;;7.60;3.25;;;;;;;12.04;100.00;99188.22;4986289;28;20121;-68
2022/11/04 07:43:24;;;;;;;5.65;2.28;;;;;;;12.08;99.44;99193.28;4992483;28;20389;-68
2022/11/04 07:46:11;;;;;;;4.55;1.65;;;;;;;12.13;99.04;99175.25;4993417;28;20028;-68
2022/11/04 07:48:37;;;;;;;7.18;1.75;;;;;;;12.21;98.14;99183.72;4991022;28;20038;-68
2022/11/04 07:51:05;;;;;;;3.28;1.75;;;;;;;12.28;98.57;99179.78;4990519;28;20081;-68
2022/11/04 07:53:31;;;;;;;5.53;2.38;;;;;;;12.40;98.26;99181.81;4992908;28;20397;-68
2022/11/04 07:55:57;;;;;;;4.13;2.00;;;;;;;12.43;97.51;99168.31;4991571;28;20034;-67
2022/11/04 07:58:23;;;;;;;2.95;1.30;;;;;;;12.49;97.38;99173.31;4988079;28;20210;-68
2022/11/04 08:00:48;;;;;;;3.63;1.30;;;;;;;12.51;96.69;99171.44;4992464;28;20050;-68
2022/11/04 08:03:14;;;;;;;4.95;1.55;;;;;;;12.51;96.27;99159.88;4991648;28;20026;-68
2022/11/04 08:05:39;;;;;;;4.03;1.20;;;;;;;12.73;96.02;99176.47;4987930;28;20038;-68
2022/11/04 08:08:05;;;;;;;3.45;1.58;;;;;;;12.83;95.42;99170.53;4990824;28;20047;-68
2022/11/04 08:10:30;;;;;;;3.70;1.38;;;;;;;12.92;94.44;99162.03;4989682;28;20544;-70
2022/11/04 08:12:56;;;;;;;2.95;1.30;;;;;;;13.06;92.96;99164.81;4990625;28;20022;-69
2022/11/04 08:15:21;;;;;;;4.22;1.80;;;;;;;13.16;92.91;99154.50;4991658;28;20084;-70
2022/11/04 08:17:47;;;;;;;4.47;1.70;;;;;;;13.23;92.21;99160.34;4989156;28;20112;-69
2022/11/04 08:20:13;;;;;;;5.78;1.40;;;;;;;13.34;91.85;99152.56;4990112;28;20030;-71
2022/11/04 08:22:38;;;;;;;3.75;1.50;;;;;;;13.59;90.91;99153.72;4975435;28;20030;-70
2022/11/04 08:25:04;;;;;;;5.70;3.28;;;;;;;13.98;89.30;99139.81;4988148;28;20088;-71
2022/11/04 08:27:30;;;;;;;4.07;1.85;;;;;;;14.28;87.65;99144.19;4990135;28;20033;-69
2022/11/04 08:29:56;;;;;;;8.32;2.10;;;;;;;14.46;85.42;99152.91;4985245;28;20026;-70
2022/11/04 08:32:21;;;;;;;4.13;1.83;;;;;;;14.70;85.29;99140.66;4978548;28;20037;-70
2022/11/04 08:34:47;;;;;;;3.33;1.48;;;;;;;15.51;83.75;99135.34;4988298;28;20030;-70
2022/11/04 08:37:15;;;;;;;3.38;1.83;;;;;;;16.18;76.40;99130.75;4984715;28;20030;-70
2022/11/04 08:39:41;;;;;;;2.25;1.10;;;;;;;16.55;75.13;99114.69;4988058;28;20054;-71
2022/11/04 08:42:07;;;;;;;2.58;1.20;;;;;;;16.87;71.86;99131.16;4986366;28;20368;-70
2022/11/04 08:44:33;;;;;;;4.20;1.10;;;;;;;17.20;70.79;99126.03;4984483;28;20026;-71
2022/11/04 08:46:58;;;;;;;3.85;1.20;;;;;;;17.85;68.78;99127.38;4983147;28;20027;-71
2022/11/04 08:49:24;;;;;;;3.15;1.10;;;;;;;18.40;66.19;99118.63;4986494;28;20027;-71
2022/11/04 08:51:55;;;;;;;3.83;1.23;;;;;;;19.16;62.20;99124.97;4986266;28;20026;-72
2022/11/04 08:54:22;;;;;;;3.13;1.02;;;;;;;19.89;59.88;99124.25;4986489;28;20527;-72
2022/11/04 08:56:48;;;;;;;1.45;0.88;;;;;;;20.89;55.77;99117.25;4986498;28;20399;-70
2022/11/04 08:59:13;;;;;;;4.03;0.98;;;;;;;21.67;52.58;99128.16;4984881;28;20026;-71
2022/11/04 09:01:41;;;;;;;2.75;1.00;;;;;;;22.15;50.21;99126.34;4985719;28;20371;-70
2022/11/04 09:04:06;;;;;;;5.28;1.50;;;;;;;21.84;49.73;99113.97;4974608;28;20045;-72
2022/11/04 09:06:36;;;;;;;3.33;1.20;;;;;;;20.81;50.78;99125.19;4985777;28;20049;-71
2022/11/04 09:09:03;;;;;;;5.35;1.80;;;;;;;20.03;53.64;99127.50;4987398;28;20030;-70
2022/11/04 09:11:36;;;;;;;4.88;1.23;;;;;;;19.56;55.59;99127.97;4983719;28;20680;-71
2022/11/04 09:14:03;;;;;;;2.72;0.77;;;;;;;19.02;55.62;99127.06;4985749;28;20417;-71
2022/11/04 09:16:30;;;;;;;4.18;1.00;;;;;;;18.59;58.60;99120.69;4983993;28;20061;-70
2022/11/04 09:18:56;;;;;;;3.75;1.40;;;;;;;18.57;57.68;99130.72;4981785;28;20585;-69
2022/11/04 09:21:22;;;;;;;1.35;0.75;;;;;;;18.48;56.97;99123.41;4985340;28;20026;-69
2022/11/04 09:23:47;;;;;;;2.17;0.65;;;;;;;18.22;58.90;99134.31;4974574;28;20030;-68
2022/11/04 09:26:14;;;;;;;1.73;0.70;;;;;;;18.17;59.83;99136.50;4983289;28;20504;-68
2022/11/04 09:28:40;;;;;;;7.28;1.58;;;;;;;18.25;59.09;99147.53;4988339;28;20026;-68
2022/11/04 09:31:11;;;;;;;3.22;1.15;;;;;;;18.54;57.85;99157.91;4986092;28;20398;-68
2022/11/04 09:33:37;;;;;;;3.00;1.42;;;;;;;18.47;57.60;99154.00;4985108;28;20704;-68
2022/11/04 09:36:03;;;;;;;2.05;1.35;;;;;;;17.82;58.44;99153.66;4985463;28;20030;-68
2022/11/04 09:38:28;;;;;;;3.58;0.90;;;;;;;17.43;60.73;99161.97;4984415;28;20025;-68
2022/11/04 09:40:54;;;;;;;3.30;0.90;;;;;;;16.85;62.14;99154.63;4987843;28;20038;-72
2022/11/04 09:43:50;;;;;;;2.35;1.00;;;;;;;16.42;63.47;99163.94;4984526;28;20026;-70
2022/11/04 09:46:16;;;;;;;3.33;1.20;;;;;;;16.00;66.18;99148.09;4986227;28;20034;-71
2022/11/04 09:48:49;;;;;;;3.80;1.42;;;;;;;15.63;67.85;99155.13;4989825;28;20114;-68
2022/11/04 09:51:19;;;;;;;2.22;0.88;;;;;;;15.21;69.49;99164.09;4988874;28;20683;-69
2022/11/04 09:53:55;;;;;;;4.60;1.10;;;;;;;15.00;71.20;99170.84;4988616;28;20138;-69
2022/11/04 09:56:51;;;;;;;3.97;1.48;;;;;;;14.93;73.00;99174.00;4996382;28;20045;-69
2022/11/04 09:59:25;;;;;;;4.97;1.20;;;;;;;14.93;73.64;99166.84;4972617;28;20042;-68
2022/11/04 10:01:55;;;;;;;3.75;1.30;;;;;;;14.83;72.58;99171.06;4990682;28;20030;-69
2022/11/04 10:04:45;;;;;;;3.13;1.00;;;;;;;14.81;74.14;99174.81;4987004;28;20608;-69
2022/11/04 10:07:38;;;;;;;5.28;1.35;;;;;;;14.88;73.40;99179.66;4986285;28;20050;-69
2022/11/04 10:10:41;;;;;;;7.03;1.20;;;;;;;14.78;73.87;99175.84;4985305;28;20078;-69
2022/11/04 10:13:48;;;;;;;5.05;1.77;;;;;;;14.97;72.96;99180.91;4986405;28;20383;-68
2022/11/04 10:16:52;;;;;;;2.05;1.30;;;;;;;15.00;72.53;99175.34;4980751;28;20046;-70
2022/11/04 10:19:50;;;;;;;6.05;1.63;;;;;;;15.02;72.81;99179.66;4989181;28;20018;-70
2022/11/04 10:22:33;;;;;;;3.53;1.13;;;;;;;14.95;72.16;99172.97;4992549;28;20053;-69
2022/11/04 10:25:18;;;;;;;3.60;1.35;;;;;;;14.96;73.37;99184.53;4988199;28;20034;-70
2022/11/04 10:27:45;;;;;;;3.20;1.38;;;;;;;14.76;73.38;99166.19;4990130;28;20034;-69
2022/11/04 10:30:23;;;;;;;3.83;1.92;;;;;;;14.84;74.70;99172.78;4985984;28;20029;-67
2022/11/04 10:33:15;;;;;;;4.20;1.70;;;;;;;14.90;74.30;99169.72;4989903;28;20357;-68
2022/11/04 10:35:45;;;;;;;3.40;1.52;;;;;;;15.03;74.91;99165.31;4990253;28;20084;-69
2022/11/04 10:38:24;;;;;;;2.88;1.20;;;;;;;15.00;74.44;99165.50;4987913;28;20018;-68
2022/11/04 10:40:52;;;;;;;5.18;2.53;;;;;;;15.07;74.51;99169.50;4993174;28;20034;-68
2022/11/04 10:43:25;;;;;;;4.10;1.70;;;;;;;15.14;74.63;99173.50;4991173;28;20038;-69
2022/11/04 10:46:03;;;;;;;4.43;1.80;;;;;;;15.23;75.67;99167.56;4992501;28;20026;-69
2022/11/04 10:48:38;;;;;;;5.82;1.40;;;;;;;15.28;75.92;99165.44;4990210;28;20030;-69
2022/11/04 10:51:04;;;;;;;4.90;1.40;;;;;;;15.24;75.64;99169.25;4994560;28;20037;-69
2022/11/04 10:53:31;;;;;;;3.25;1.80;;;;;;;15.23;74.96;99170.25;4993912;28;20476;-69
2022/11/04 10:56:11;;;;;;;3.97;2.40;;;;;;;15.17;76.11;99167.94;4993669;28;20026;-69
2022/11/04 10:58:44;;;;;;;5.78;1.90;;;;;;;15.14;76.01;99162.78;4992782;28;20065;-70
2022/11/04 11:01:31;;;;;;;9.82;2.88;;;;;;;15.03;75.91;99167.97;4993068;28;20121;-70
2022/11/04 11:03:57;;;;;;;16.88;6.05;;;;;;;15.02;77.19;99162.72;4993794;28;20030;-69
2022/11/04 11:06:29;;;;;;;11.73;3.28;;;;;;;15.00;78.73;99165.50;4993781;28;20096;-69
2022/11/04 11:09:20;;;;;;;22.95;7.53;;;;;;;14.93;78.87;99160.63;4994726;28;20026;-69
2022/11/04 11:11:49;;;;;;;16.73;6.35;;;;;;;14.90;78.24;99164.38;4993952;28;20034;-69
2022/11/04 11:14:29;;;;;;;15.02;5.78;;;;;;;14.88;80.17;99165.41;4993529;28;20036;-69
2022/11/04 11:17:18;;;;;;;18.30;6.50;;;;;;;14.82;80.32;99161.31;4989754;28;20121;-70
2022/11/04 11:19:55;;;;;;;19.33;9.05;;;;;;;14.80;80.67;99147.16;4993225;28;20278;-70
2022/11/04 11:22:31;;;;;;;6.47;2.47;;;;;;;14.82;80.94;99155.09;4990295;28;20034;-70
2022/11/04 11:25:16;;;;;;;4.10;1.75;;;;;;;14.90;80.25;99161.69;4987660;28;20077;-70
2022/11/04 11:27:48;;;;;;;4.55;1.65;;;;;;;14.96;80.24;99153.25;4991078;28;20053;-70
2022/11/04 11:30:27;;;;;;;3.63;1.67;;;;;;;15.09;81.03;99159.53;4987290;28;20524;-68
2022/11/04 11:32:59;;;;;;;9.40;1.90;;;;;;;15.23;82.09;99151.47;4991476;28;20370;-70
2022/11/04 11:35:33;;;;;;;6.47;1.92;;;;;;;15.32;81.69;99156.22;4987377;28;20523;-69
2022/11/04 11:38:03;;;;;;;3.53;1.38;;;;;;;15.22;78.25;99157.78;4986963;28;20030;-69
2022/11/04 11:40:33;;;;;;;6.97;1.40;;;;;;;15.35;78.83;99149.81;4989657;28;20092;-69
2022/11/04 11:43:00;;;;;;;5.32;1.50;;;;;;;15.49;80.06;99142.63;4989637;28;20058;-69
2022/11/04 11:45:27;;;;;;;8.27;1.42;;;;;;;15.77;78.73;99137.13;4986779;28;20050;-69
2022/11/04 11:47:55;;;;;;;5.18;1.67;;;;;;;16.28;77.78;99134.50;4986662;28;20033;-69
2022/11/04 11:50:29;;;;;;;3.92;1.90;;;;;;;16.86;70.37;99135.69;4985214;28;20026;-68
2022/11/04 11:53:05;;;;;;;;;;;;;;;17.26;68.16;99133.66;4987745;28;20032;-68
2022/11/04 11:55:36;;;;;;;5.05;1.60;;;;;;;17.49;68.58;99130.16;4986955;28;20404;-68
2022/11/04 11:58:37;;;;;;;8.57;1.98;;;;;;;17.70;65.98;99138.44;4985434;28;20041;-68
2022/11/04 12:01:12;;;;;;;7.28;1.80;;;;;;;17.75;65.37;99139.81;4986370;28;20100;-68
2022/11/04 12:03:42;;;;;;;9.15;4.68;;;;;;;18.02;66.82;99132.31;4984171;28;20029;-68
2022/11/04 12:06:18;;;;;;;3.08;1.05;;;;;;;18.28;61.38;99136.56;4984613;28;20053;-69
2022/11/04 12:09:19;;;;;;;4.20;1.15;;;;;;;18.21;62.02;99124.53;4985055;28;20449;-69
2022/11/04 12:11:50;;;;;;;4.60;1.13;;;;;;;17.82;63.77;99143.75;4969128;28;20577;-68